Time;durP1;ratioP1;P1;durP2;ratioP2;P2;SDS_P1;SDS_P2;PMS_P1;PMS_P2;Temp;Humidity;BMP_temperature;BMP_pressure;BME280_temperature;BME280_humidity;BME280_pressure;Samples;Min_cycle;Max_cycle;Signal;HPM_P1;HPM_P2
2022/06/24 00:00:29;;;;;;;3.22;2.78;;;;;;;;;;6173737;28;20233;-73
2022/06/24 00:03:50;;;;;;;3.25;2.42;;;;;;;;;;6176455;28;20225;-73
2022/06/24 00:07:14;;;;;;;2.78;2.58;;;;;;;;;;6174629;28;20259;-73
2022/06/24 00:10:36;;;;;;;2.75;2.55;;;;;;;;;;6173880;28;20234;-73
2022/06/24 00:14:08;;;;;;;2.70;2.50;;;;;;;;;;6170303;28;20237;-73
2022/06/24 00:17:30;;;;;;;2.95;2.65;;;;;;;;;;6174889;28;20233;-73
2022/06/24 00:20:51;;;;;;;3.13;2.83;;;;;;;;;;6171351;28;20298;-73
2022/06/24 00:24:21;;;;;;;2.75;2.53;;;;;;;;;;6174296;28;20242;-72
2022/06/24 00:27:42;;;;;;;2.50;2.28;;;;;;;;;;6176739;28;20237;-72
2022/06/24 00:31:05;;;;;;;2.80;2.60;;;;;;;;;;6183876;28;20221;-72
2022/06/24 00:34:25;;;;;;;2.80;2.60;;;;;;;;;;6174007;28;20233;-72
2022/06/24 00:37:46;;;;;;;4.03;2.67;;;;;;;;;;6173733;28;20234;-73
2022/06/24 00:41:08;;;;;;;2.67;2.47;;;;;;;;;;6163712;28;20238;-73
2022/06/24 00:44:33;;;;;;;2.40;2.20;;;;;;;;;;6172972;28;20230;-73
2022/06/24 00:47:56;;;;;;;3.80;3.33;;;;;;;;;;6174812;28;21191;-74
2022/06/24 00:51:17;;;;;;;3.72;2.70;;;;;;;;;;6170507;28;20238;-73
2022/06/24 00:54:38;;;;;;;2.65;2.45;;;;;;;;;;6172503;28;20619;-73
2022/06/24 00:58:00;;;;;;;2.92;2.72;;;;;;;;;;6176458;28;20237;-73
2022/06/24 01:01:26;;;;;;;2.25;2.15;;;;;;;;;;6171722;28;20225;-72
2022/06/24 01:04:48;;;;;;;3.63;2.55;;;;;;;;;;6165991;28;20248;-73
2022/06/24 01:08:09;;;;;;;2.85;2.63;;;;;;;;;;6147400;28;20245;-73
2022/06/24 01:11:30;;;;;;;3.17;2.88;;;;;;;;;;6168575;28;20312;-72
2022/06/24 01:14:51;;;;;;;4.18;2.70;;;;;;;;;;6163711;28;20242;-72
2022/06/24 01:18:11;;;;;;;3.33;2.88;;;;;;;;;;6143413;28;20221;-72
2022/06/24 01:21:34;;;;;;;2.88;2.67;;;;;;;;;;6163937;28;20230;-72
2022/06/24 01:24:55;;;;;;;2.88;2.67;;;;;;;;;;6160093;28;20230;-72
2022/06/24 01:28:16;;;;;;;2.92;2.50;;;;;;;;;;6165682;28;20265;-72
2022/06/24 01:31:38;;;;;;;4.20;2.65;;;;;;;;;;6165944;28;20226;-72
2022/06/24 01:34:59;;;;;;;2.78;2.58;;;;;;;;;;6162632;28;20241;-73
2022/06/24 01:38:21;;;;;;;3.08;2.75;;;;;;;;;;6162148;28;20353;-72
2022/06/24 01:41:42;;;;;;;2.80;2.60;;;;;;;;;;6164820;28;20273;-73
2022/06/24 01:45:02;;;;;;;3.33;3.00;;;;;;;;;;6167717;28;21725;-72
2022/06/24 01:48:23;;;;;;;3.22;2.95;;;;;;;;;;6160427;28;20233;-72
2022/06/24 01:51:45;;;;;;;3.17;2.83;;;;;;;;;;6170097;28;20257;-72
2022/06/24 01:55:07;;;;;;;3.10;2.80;;;;;;;;;;6169374;28;20241;-72
2022/06/24 01:58:28;;;;;;;3.58;2.60;;;;;;;;;;6138650;28;20249;-72
2022/06/24 02:01:49;;;;;;;2.78;2.58;;;;;;;;;;6164244;28;20610;-72
2022/06/24 02:05:09;;;;;;;6.75;3.42;;;;;;;;;;6173164;28;20238;-72
2022/06/24 02:08:30;;;;;;;2.95;2.75;;;;;;;;;;6171213;28;20241;-73
2022/06/24 02:15:30;;;;;;;2.47;2.28;;;;;;;;;;6169050;28;20241;-73
2022/06/24 02:18:52;;;;;;;3.38;2.85;;;;;;;;;;6169346;28;20230;-72
2022/06/24 02:22:12;;;;;;;3.10;2.90;;;;;;;;;;6174412;28;20226;-73
2022/06/24 02:25:33;;;;;;;4.72;3.15;;;;;;;;;;6170144;28;20230;-73
2022/06/24 02:28:55;;;;;;;2.80;2.60;;;;;;;;;;6169120;28;20241;-74
2022/06/24 02:32:16;;;;;;;2.83;2.63;;;;;;;;;;6169773;28;20286;-73
2022/06/24 02:35:37;;;;;;;2.38;2.20;;;;;;;;;;6173800;28;20229;-73
2022/06/24 02:38:58;;;;;;;3.13;2.92;;;;;;;;;;6169178;28;20234;-72
2022/06/24 02:42:20;;;;;;;3.83;2.67;;;;;;;;;;6167479;28;20679;-73
2022/06/24 02:45:42;;;;;;;3.83;3.00;;;;;;;;;;6170469;28;20360;-73
2022/06/24 02:49:02;;;;;;;3.60;3.25;;;;;;;;;;6165053;28;20230;-73
2022/06/24 02:52:23;;;;;;;6.90;2.75;;;;;;;;;;6172724;28;20225;-73
2022/06/24 02:55:44;;;;;;;2.95;2.53;;;;;;;;;;6140491;28;20262;-73
2022/06/24 02:59:05;;;;;;;2.90;2.70;;;;;;;;;;6170446;28;20564;-72
2022/06/24 03:02:27;;;;;;;3.58;2.60;;;;;;;;;;6154198;28;20226;-73
2022/06/24 03:05:48;;;;;;;2.95;2.60;;;;;;;;;;6169573;28;20547;-73
2022/06/24 03:09:08;;;;;;;4.97;3.53;;;;;;;;;;6168035;28;20234;-72
2022/06/24 03:12:29;;;;;;;17.25;15.95;;;;;;;;;;6172676;28;20230;-73
2022/06/24 03:15:49;;;;;;;10.57;9.65;;;;;;;;;;6167280;28;20237;-72
2022/06/24 03:19:11;;;;;;;5.30;4.32;;;;;;;;;;6170722;28;20230;-73
2022/06/24 03:22:32;;;;;;;5.40;4.30;;;;;;;;;;6172182;28;20233;-73
2022/06/24 03:25:52;;;;;;;4.47;3.65;;;;;;;;;;6171824;28;20318;-73
2022/06/24 03:29:12;;;;;;;3.58;3.10;;;;;;;;;;6166925;28;20225;-71
2022/06/24 03:32:33;;;;;;;3.33;3.13;;;;;;;;;;6168121;28;20283;-72
2022/06/24 03:35:55;;;;;;;3.60;3.30;;;;;;;;;;6167379;28;20233;-73
2022/06/24 03:39:16;;;;;;;3.25;2.47;;;;;;;;;;6168935;28;20241;-72
2022/06/24 03:42:37;;;;;;;3.85;2.92;;;;;;;;;;6166999;28;20226;-72
2022/06/24 03:46:00;;;;;;;3.15;2.78;;;;;;;;;;6154199;28;20297;-72
2022/06/24 03:49:20;;;;;;;2.70;2.50;;;;;;;;;;6168130;28;20249;-72
2022/06/24 03:52:42;;;;;;;3.47;2.42;;;;;;;;;;6167668;28;20612;-73
2022/06/24 03:56:03;;;;;;;2.60;2.40;;;;;;;;;;6165066;28;20237;-72
2022/06/24 03:59:23;;;;;;;2.35;2.15;;;;;;;;;;6166337;28;20607;-73
2022/06/24 04:02:44;;;;;;;3.38;3.08;;;;;;;;;;6163241;28;20237;-73
2022/06/24 04:06:04;;;;;;;4.03;2.58;;;;;;;;;;6168167;28;20249;-71
2022/06/24 04:09:27;;;;;;;3.42;2.58;;;;;;;;;;6163491;28;20226;-72
2022/06/24 04:12:47;;;;;;;2.60;1.90;;;;;;;;;;6167866;28;20237;-73
2022/06/24 04:16:08;;;;;;;2.53;2.30;;;;;;;;;;6171937;28;20234;-72
2022/06/24 04:19:28;;;;;;;2.95;2.40;;;;;;;;;;6169772;28;20229;-72
2022/06/24 04:22:49;;;;;;;3.60;2.97;;;;;;;;;;6174388;28;20237;-73
2022/06/24 04:26:11;;;;;;;3.45;3.15;;;;;;;;;;6172031;28;20230;-72
2022/06/24 04:29:32;;;;;;;3.95;3.30;;;;;;;;;;6172103;28;20229;-72
2022/06/24 04:32:52;;;;;;;4.80;2.83;;;;;;;;;;6168715;28;20258;-73
2022/06/24 04:36:14;;;;;;;3.10;2.80;;;;;;;;;;6170024;28;20234;-73
2022/06/24 04:39:34;;;;;;;2.85;2.65;;;;;;;;;;6174610;28;20226;-72
2022/06/24 04:42:56;;;;;;;2.70;2.50;;;;;;;;;;6168462;28;20233;-72
2022/06/24 04:46:17;;;;;;;2.97;2.78;;;;;;;;;;6174924;28;20234;-73
2022/06/24 04:49:38;;;;;;;2.90;2.70;;;;;;;;;;6175088;28;21071;-73
2022/06/24 04:52:58;;;;;;;3.05;2.85;;;;;;;;;;6177223;28;20237;-73
2022/06/24 04:56:19;;;;;;;3.60;3.00;;;;;;;;;;6174329;28;20249;-73
2022/06/24 04:59:41;;;;;;;2.65;2.45;;;;;;;;;;6175015;28;20242;-72
2022/06/24 05:03:02;;;;;;;2.80;2.60;;;;;;;;;;6174139;28;20615;-73
2022/06/24 05:06:23;;;;;;;3.13;2.92;;;;;;;;;;6178261;28;20328;-73
2022/06/24 05:09:44;;;;;;;3.03;2.83;;;;;;;;;;6176125;28;20238;-72
2022/06/24 05:13:04;;;;;;;3.28;2.97;;;;;;;;;;6173300;28;20234;-73
2022/06/24 05:16:26;;;;;;;3.95;2.35;;;;;;;;;;6172182;28;20539;-73
2022/06/24 05:19:47;;;;;;;3.58;3.08;;;;;;;;;;6175460;28;20230;-72
2022/06/24 05:23:07;;;;;;;4.40;2.92;;;;;;;;;;6175273;28;20561;-72
2022/06/24 05:26:28;;;;;;;3.92;3.28;;;;;;;;;;6172183;28;20229;-74
2022/06/24 05:29:49;;;;;;;3.63;2.80;;;;;;;;;;6169697;28;20267;-73
2022/06/24 05:33:10;;;;;;;3.83;2.42;;;;;;;;;;6172041;28;20257;-73
2022/06/24 05:36:31;;;;;;;3.75;2.20;;;;;;;;;;6169170;28;20234;-72
2022/06/24 05:39:52;;;;;;;9.18;4.70;;;;;;;;;;6171335;28;21793;-73
2022/06/24 05:43:12;;;;;;;4.38;3.58;;;;;;;;;;6178461;28;20226;-74
2022/06/24 05:46:33;;;;;;;2.85;2.65;;;;;;;;;;6167332;28;20646;-71
2022/06/24 05:49:55;;;;;;;4.40;3.35;;;;;;;;;;6173744;28;20238;-73
2022/06/24 05:56:53;;;;;;;4.63;3.10;;;;;;;;;;6172919;28;20229;-75
2022/06/24 06:00:14;;;;;;;3.85;2.75;;;;;;;;;;6162104;28;20249;-74
2022/06/24 06:03:35;;;;;;;3.47;3.17;;;;;;;;;;6153275;28;20241;-76
2022/06/24 06:06:57;;;;;;;6.45;2.80;;;;;;;;;;6165603;28;20238;-77
2022/06/24 06:10:17;;;;;;;3.83;3.28;;;;;;;;;;6162462;28;20234;-71
2022/06/24 06:13:38;;;;;;;2.92;2.67;;;;;;;;;;6169430;28;20832;-72
2022/06/24 06:16:58;;;;;;;3.92;2.78;;;;;;;;;;6162461;28;20241;-72
2022/06/24 06:20:19;;;;;;;4.82;3.53;;;;;;;;;;6165368;28;20797;-72
2022/06/24 06:23:41;;;;;;;3.45;2.85;;;;;;;;;;6178439;28;20249;-71
2022/06/24 06:27:01;;;;;;;3.85;3.38;;;;;;;;;;6161723;28;20257;-70
2022/06/24 06:30:22;;;;;;;2.95;2.70;;;;;;;;;;6164387;28;20230;-77
2022/06/24 06:33:43;;;;;;;3.78;3.47;;;;;;;;;;6148890;28;20233;-76
2022/06/24 06:37:04;;;;;;;3.65;3.15;;;;;;;;;;6168680;28;20253;-74
2022/06/24 06:40:26;;;;;;;3.50;3.20;;;;;;;;;;6157457;28;20232;-73
2022/06/24 06:43:46;;;;;;;3.40;3.10;;;;;;;;;;6172482;28;20237;-73
2022/06/24 06:47:07;;;;;;;3.58;3.28;;;;;;;;;;6171707;28;20225;-74
2022/06/24 06:50:28;;;;;;;4.18;3.40;;;;;;;;;;6169862;28;20226;-79
2022/06/24 06:53:48;;;;;;;5.35;3.33;;;;;;;;;;6168438;28;20249;-78
2022/06/24 06:57:10;;;;;;;4.10;3.08;;;;;;;;;;6166449;28;21158;-82
2022/06/24 07:00:31;;;;;;;4.75;3.95;;;;;;;;;;6167100;28;20594;-76
2022/06/24 07:03:51;;;;;;;5.00;3.50;;;;;;;;;;6165197;28;20254;-75
2022/06/24 07:07:12;;;;;;;7.00;3.33;;;;;;;;;;6165174;28;20234;-73
2022/06/24 07:10:32;;;;;;;4.50;3.10;;;;;;;;;;6163964;28;20325;-74
2022/06/24 07:13:54;;;;;;;6.15;3.67;;;;;;;;;;6161811;28;20257;-74
2022/06/24 07:17:15;;;;;;;3.75;3.42;;;;;;;;;;6163041;28;20241;-79
2022/06/24 07:20:36;;;;;;;4.13;3.75;;;;;;;;;;6163273;28;20237;-73
2022/06/24 07:23:57;;;;;;;4.95;4.35;;;;;;;;;;6165075;28;20234;-72
2022/06/24 07:27:18;;;;;;;4.35;4.05;;;;;;;;;;6167939;28;20237;-74
2022/06/24 07:30:40;;;;;;;4.20;3.90;;;;;;;;;;6159831;28;20278;-76
2022/06/24 07:34:02;;;;;;;4.70;4.32;;;;;;;;;;6168366;28;20888;-76
2022/06/24 07:37:23;;;;;;;4.47;3.70;;;;;;;;;;6171981;28;20222;-76
2022/06/24 07:40:43;;;;;;;3.72;3.53;;;;;;;;;;6169789;28;20229;-77
2022/06/24 07:44:04;;;;;;;4.35;3.97;;;;;;;;;;6180326;28;20226;-71
2022/06/24 07:47:26;;;;;;;4.57;4.28;;;;;;;;;;6172533;28;20241;-77
2022/06/24 07:50:47;;;;;;;8.70;4.72;;;;;;;;;;6170205;28;20320;-75
2022/06/24 07:54:08;;;;;;;5.70;3.55;;;;;;;;;;6174154;28;20233;-75
2022/06/24 07:57:28;;;;;;;5.30;4.43;;;;;;;;;;6170641;28;20233;-74
2022/06/24 08:00:48;;;;;;;4.30;3.75;;;;;;;;;;6171147;28;20717;-74
2022/06/24 08:04:10;;;;;;;4.35;3.95;;;;;;;;;;6165832;28;20848;-86
2022/06/24 08:07:31;;;;;;;3.97;3.58;;;;;;;;;;6164616;28;21706;-78
2022/06/24 08:10:51;;;;;;;4.82;3.60;;;;;;;;;;6166464;28;20230;-77
2022/06/24 08:14:13;;;;;;;5.10;4.68;;;;;;;;;;6166262;28;20237;-72
2022/06/24 08:17:33;;;;;;;5.00;4.50;;;;;;;;;;6158880;28;20519;-74
2022/06/24 08:20:55;;;;;;;5.22;4.53;;;;;;;;;;6153164;28;20615;-76
2022/06/24 08:24:16;;;;;;;5.50;4.15;;;;;;;;;;6161931;28;20604;-75
2022/06/24 08:27:36;;;;;;;5.50;3.88;;;;;;;;;;6158213;28;20503;-77
2022/06/24 08:30:57;;;;;;;4.88;4.47;;;;;;;;;;6150346;28;20230;-73
2022/06/24 08:34:21;;;;;;;4.95;3.75;;;;;;;;;;6156638;28;20556;-69
2022/06/24 08:37:42;;;;;;;4.28;3.97;;;;;;;;;;6149472;28;20337;-72
2022/06/24 08:41:03;;;;;;;4.25;3.85;;;;;;;;;;6158278;28;20660;-75
2022/06/24 08:44:24;;;;;;;6.28;4.30;;;;;;;;;;6159920;28;20916;-71
2022/06/24 08:47:45;;;;;;;5.32;4.90;;;;;;;;;;6167511;28;20615;-72
2022/06/24 08:51:06;;;;;;;4.07;3.67;;;;;;;;;;6153844;28;20242;-77
2022/06/24 08:54:29;;;;;;;6.03;4.30;;;;;;;;;;6170214;28;20238;-74
2022/06/24 08:57:50;;;;;;;7.10;4.10;;;;;;;;;;6169864;28;20296;-76
2022/06/24 09:01:13;;;;;;;4.93;3.88;;;;;;;;;;6169373;28;20229;-80
2022/06/24 09:04:34;;;;;;;5.15;3.88;;;;;;;;;;6169628;28;20230;-82
2022/06/24 09:07:57;;;;;;;6.82;4.80;;;;;;;;;;6182762;28;20241;-79
2022/06/24 09:11:19;;;;;;;4.05;3.85;;;;;;;;;;6170375;28;20238;-81
2022/06/24 09:14:44;;;;;;;5.43;4.22;;;;;;;;;;6177083;28;20691;-78
2022/06/24 09:18:04;;;;;;;6.30;4.25;;;;;;;;;;6176398;28;20229;-75
2022/06/24 09:21:27;;;;;;;4.80;4.03;;;;;;;;;;6169254;28;20234;-79
2022/06/24 09:24:51;;;;;;;4.47;4.00;;;;;;;;;;6178154;28;20256;-79
2022/06/24 09:28:20;;;;;;;8.45;4.00;;;;;;;;;;6177248;28;20226;-75
2022/06/24 09:31:40;;;;;;;5.05;4.07;;;;;;;;;;6175546;28;20232;-76
2022/06/24 09:35:02;;;;;;;5.05;4.65;;;;;;;;;;6175542;28;20234;-82
2022/06/24 09:38:25;;;;;;;4.90;3.55;;;;;;;;;;6173781;28;20237;-73
2022/06/24 09:41:46;;;;;;;4.60;4.15;;;;;;;;;;6172571;28;21513;-74
2022/06/24 09:45:09;;;;;;;5.03;3.85;;;;;;;;;;6172710;28;20241;-73
2022/06/24 09:48:38;;;;;;;4.75;4.28;;;;;;;;;;6174773;28;20313;-77
2022/06/24 09:51:59;;;;;;;7.07;4.60;;;;;;;;;;6178588;28;20225;-76
2022/06/24 09:55:20;;;;;;;7.38;4.95;;;;;;;;;;6175679;28;20229;-76
2022/06/24 09:58:43;;;;;;;4.78;4.38;;;;;;;;;;6165061;28;20549;-71
2022/06/24 10:02:04;;;;;;;4.75;4.32;;;;;;;;;;6182046;28;20230;-74
2022/06/24 10:05:27;;;;;;;4.75;4.43;;;;;;;;;;6173152;28;20234;-78
2022/06/24 10:08:47;;;;;;;4.82;4.38;;;;;;;;;;6176443;28;20615;-73
2022/06/24 10:12:08;;;;;;;5.05;4.63;;;;;;;;;;6172329;28;20257;-75
2022/06/24 10:15:29;;;;;;;4.53;4.18;;;;;;;;;;6173878;28;20241;-71
2022/06/24 10:18:52;;;;;;;5.00;4.50;;;;;;;;;;6176213;28;20226;-70
2022/06/24 10:22:27;;;;;;;5.00;4.53;;;;;;;;;;6179268;28;20229;-72
2022/06/24 10:25:52;;;;;;;5.55;4.97;;;;;;;;;;6171994;28;20237;-71
2022/06/24 10:29:17;;;;;;;5.97;5.57;;;;;;;;;;6171063;28;20233;-72
2022/06/24 10:32:58;;;;;;;4.22;3.92;;;;;;;;;;6179392;28;20226;-74
2022/06/24 10:36:30;;;;;;;4.97;4.50;;;;;;;;;;6169606;28;20237;-70
2022/06/24 10:39:52;;;;;;;5.68;4.78;;;;;;;;;;6160819;28;20659;-71
2022/06/24 10:43:12;;;;;;;4.57;3.95;;;;;;;;;;6173258;28;20595;-71
2022/06/24 10:46:33;;;;;;;6.70;4.45;;;;;;;;;;6172196;28;20261;-72
2022/06/24 10:50:12;;;;;;;3.85;3.55;;;;;;;;;;6170758;28;20905;-73
2022/06/24 10:53:57;;;;;;;7.28;5.30;;;;;;;;;;6179587;28;20241;-72
2022/06/24 10:57:18;;;;;;;13.32;5.00;;;;;;;;;;6165784;28;20245;-71
2022/06/24 11:00:51;;;;;;;4.72;4.15;;;;;;;;;;6151848;28;21951;-71
2022/06/24 11:04:13;;;;;;;7.50;5.03;;;;;;;;;;6163320;28;20813;-72
2022/06/24 11:07:34;;;;;;;5.05;4.63;;;;;;;;;;6161931;28;20324;-72
2022/06/24 11:10:56;;;;;;;6.50;4.97;;;;;;;;;;6162630;28;20242;-71
2022/06/24 11:14:26;;;;;;;4.70;4.28;;;;;;;;;;6154112;28;20226;-71
2022/06/24 11:17:47;;;;;;;5.72;5.22;;;;;;;;;;6141601;28;20237;-71
2022/06/24 11:21:09;;;;;;;5.93;4.57;;;;;;;;;;6138933;28;20304;-76
2022/06/24 11:24:30;;;;;;;4.90;4.50;;;;;;;;;;6145983;28;20260;-76
2022/06/24 11:27:51;;;;;;;6.57;4.22;;;;;;;;;;6155173;28;20257;-75
2022/06/24 11:31:17;;;;;;;4.85;4.53;;;;;;;;;;6141249;28;21124;-77
2022/06/24 11:34:38;;;;;;;6.63;5.15;;;;;;;;;;6156813;28;21000;-78
2022/06/24 11:37:58;;;;;;;5.20;4.80;;;;;;;;;;6152794;28;20237;-77
2022/06/24 11:41:23;;;;;;;5.63;5.22;;;;;;;;;;6166174;28;22269;-77
2022/06/24 11:44:47;;;;;;;4.95;4.65;;;;;;;;;;6158310;28;20241;-77
2022/06/24 11:48:09;;;;;;;4.60;4.20;;;;;;;;;;6163365;28;20234;-76
2022/06/24 11:51:29;;;;;;;8.02;4.97;;;;;;;;;;6158444;28;20249;-77
2022/06/24 11:54:51;;;;;;;4.63;4.20;;;;;;;;;;6159751;28;20234;-75
2022/06/24 11:58:18;;;;;;;4.57;4.18;;;;;;;;;;6132974;28;20670;-76
2022/06/24 12:02:00;;;;;;;4.60;4.30;;;;;;;;;;6150468;28;20245;-77
2022/06/24 12:05:38;;;;;;;5.00;4.60;;;;;;;;;;6124662;28;20229;-77
2022/06/24 12:09:01;;;;;;;5.07;4.55;;;;;;;;;;6164516;28;20248;-75
2022/06/24 12:12:22;;;;;;;4.53;4.15;;;;;;;;;;6153033;28;20311;-77
2022/06/24 12:15:53;;;;;;;5.47;5.00;;;;;;;;;;6167157;28;20379;-77
2022/06/24 12:19:16;;;;;;;14.60;6.22;;;;;;;;;;6167006;28;20233;-76
2022/06/24 12:22:39;;;;;;;6.13;4.93;;;;;;;;;;6178562;28;20602;-77
2022/06/24 12:25:59;;;;;;;10.73;4.70;;;;;;;;;;6169537;28;20245;-75
2022/06/24 12:29:24;;;;;;;7.85;4.45;;;;;;;;;;6176675;28;20348;-74
2022/06/24 12:32:49;;;;;;;6.57;3.55;;;;;;;;;;6175471;28;20620;-75
2022/06/24 12:36:11;;;;;;;9.57;5.10;;;;;;;;;;6180966;28;20226;-76
2022/06/24 12:39:34;;;;;;;5.18;4.63;;;;;;;;;;6177713;28;20584;-76
2022/06/24 12:43:04;;;;;;;5.97;5.28;;;;;;;;;;6187233;28;20607;-75
2022/06/24 12:46:26;;;;;;;8.55;5.25;;;;;;;;;;6177656;28;20219;-76
2022/06/24 12:53:25;;;;;;;5.53;5.03;;;;;;;;;;6187991;28;21147;-75
2022/06/24 12:56:47;;;;;;;5.90;5.30;;;;;;;;;;6179156;28;20224;-76
2022/06/24 13:00:09;;;;;;;7.50;4.97;;;;;;;;;;6179716;28;20678;-77
2022/06/24 13:03:29;;;;;;;7.47;5.78;;;;;;;;;;6179330;28;20554;-76
2022/06/24 13:06:50;;;;;;;5.57;4.90;;;;;;;;;;6183743;28;20237;-75
2022/06/24 13:10:11;;;;;;;6.85;4.45;;;;;;;;;;6189319;28;20217;-73
2022/06/24 13:13:33;;;;;;;6.93;5.40;;;;;;;;;;6190999;28;20234;-75
2022/06/24 13:16:53;;;;;;;8.77;5.25;;;;;;;;;;6177432;28;20238;-75
2022/06/24 13:20:14;;;;;;;5.78;4.80;;;;;;;;;;6188033;28;20237;-75
2022/06/24 13:23:35;;;;;;;8.23;4.43;;;;;;;;;;6182467;28;20230;-74
2022/06/24 13:26:55;;;;;;;5.30;4.28;;;;;;;;;;6176029;28;20234;-75
2022/06/24 13:30:18;;;;;;;8.15;4.82;;;;;;;;;;6176197;28;20273;-78
2022/06/24 13:33:39;;;;;;;5.80;3.97;;;;;;;;;;6182572;28;20238;-79
2022/06/24 13:36:59;;;;;;;5.05;4.55;;;;;;;;;;6183029;28;20229;-78
2022/06/24 13:40:20;;;;;;;8.32;4.82;;;;;;;;;;6181506;28;20233;-77
2022/06/24 13:43:41;;;;;;;5.25;4.32;;;;;;;;;;6185516;28;20227;-78
2022/06/24 13:47:03;;;;;;;7.13;5.25;;;;;;;;;;6179428;28;20320;-79
2022/06/24 13:50:26;;;;;;;5.20;4.72;;;;;;;;;;6178030;28;20238;-77
2022/06/24 13:53:46;;;;;;;6.10;5.15;;;;;;;;;;6178728;28;20237;-78
2022/06/24 13:57:08;;;;;;;6.05;4.70;;;;;;;;;;6181041;28;20245;-76
2022/06/24 14:00:32;;;;;;;6.15;4.85;;;;;;;;;;6178475;28;20233;-77
2022/06/24 14:03:56;;;;;;;6.78;5.03;;;;;;;;;;6182404;28;20230;-77
2022/06/24 14:07:17;;;;;;;5.53;4.85;;;;;;;;;;6178814;28;20317;-77
2022/06/24 14:10:38;;;;;;;6.75;4.93;;;;;;;;;;6168066;28;20250;-75
2022/06/24 14:13:58;;;;;;;5.72;4.20;;;;;;;;;;6183466;28;20760;-76
2022/06/24 14:17:19;;;;;;;4.38;3.97;;;;;;;;;;6183595;28;20238;-76
2022/06/24 14:20:41;;;;;;;4.78;4.22;;;;;;;;;;6177690;28;20241;-76
2022/06/24 14:27:39;;;;;;;4.93;3.38;;;;;;;;;;6181889;28;20218;-77
2022/06/24 14:31:00;;;;;;;6.72;3.78;;;;;;;;;;6175398;28;20230;-76
2022/06/24 14:34:21;;;;;;;4.72;3.22;;;;;;;;;;6181722;28;20746;-78
2022/06/24 14:41:21;;;;;;;5.30;2.92;;;;;;;;;;6183215;28;20237;-77
2022/06/24 14:44:41;;;;;;;7.50;3.10;;;;;;;;;;6182776;28;20225;-77
2022/06/24 14:48:03;;;;;;;4.68;3.30;;;;;;;;;;6179303;28;20233;-76
2022/06/24 14:51:23;;;;;;;4.85;3.30;;;;;;;;;;6181090;28;20238;-77
2022/06/24 14:54:45;;;;;;;3.92;3.35;;;;;;;;;;6183444;28;20261;-76
2022/06/24 14:58:06;;;;;;;5.28;3.60;;;;;;;;;;6180090;28;20238;-78
2022/06/24 15:01:26;;;;;;;4.82;3.83;;;;;;;;;;6177393;28;20238;-77
2022/06/24 15:04:46;;;;;;;3.35;3.13;;;;;;;;;;6178458;28;20253;-76
2022/06/24 15:08:07;;;;;;;3.80;3.35;;;;;;;;;;6171288;28;20317;-76
2022/06/24 15:11:29;;;;;;;5.80;3.78;;;;;;;;;;6186555;28;20237;-76
2022/06/24 15:14:50;;;;;;;5.25;3.22;;;;;;;;;;6186559;28;20221;-78
2022/06/24 15:18:11;;;;;;;5.90;3.42;;;;;;;;;;6182542;28;20793;-76
2022/06/24 15:21:32;;;;;;;6.85;4.13;;;;;;;;;;6179995;28;20622;-78
2022/06/24 15:24:53;;;;;;;6.80;4.03;;;;;;;;;;6181132;28;20265;-76
2022/06/24 15:28:15;;;;;;;4.00;3.65;;;;;;;;;;6178940;28;20233;-76
2022/06/24 15:31:36;;;;;;;3.55;3.25;;;;;;;;;;6181172;28;20229;-77
2022/06/24 15:34:57;;;;;;;3.33;2.60;;;;;;;;;;6178902;28;20309;-77
2022/06/24 15:38:17;;;;;;;3.70;3.35;;;;;;;;;;6174605;28;20486;-77
2022/06/24 15:41:38;;;;;;;4.07;3.03;;;;;;;;;;6178822;28;20229;-76
2022/06/24 15:45:00;;;;;;;4.40;3.47;;;;;;;;;;6174734;28;22391;-76
2022/06/24 15:48:21;;;;;;;8.43;2.90;;;;;;;;;;6190870;28;20269;-78
2022/06/24 15:51:41;;;;;;;4.72;3.53;;;;;;;;;;6177651;28;20801;-76
2022/06/24 15:55:02;;;;;;;3.60;2.80;;;;;;;;;;6180311;28;20234;-79
2022/06/24 15:58:23;;;;;;;3.25;2.97;;;;;;;;;;6179760;28;20229;-78
2022/06/24 16:01:45;;;;;;;3.40;3.10;;;;;;;;;;6176573;28;20233;-77
2022/06/24 16:05:06;;;;;;;4.90;3.25;;;;;;;;;;6180064;28;20229;-77
2022/06/24 16:08:27;;;;;;;5.20;3.30;;;;;;;;;;6180215;28;20219;-77
2022/06/24 16:15:26;;;;;;;3.88;2.60;;;;;;;;;;6182910;28;20261;-77
2022/06/24 16:18:47;;;;;;;3.47;2.88;;;;;;;;;;6182267;28;20238;-77
2022/06/24 16:22:08;;;;;;;11.40;10.35;;;;;;;;;;6183937;28;20242;-78
2022/06/24 16:29:07;;;;;;;33.63;30.60;;;;;;;;;;6183798;28;20592;-77
2022/06/24 16:32:28;;;;;;;34.95;31.42;;;;;;;;;;6182604;28;20607;-77
2022/06/24 16:35:50;;;;;;;13.32;11.43;;;;;;;;;;6182412;28;20257;-78
2022/06/24 16:39:11;;;;;;;10.63;9.73;;;;;;;;;;6179135;28;20233;-77
2022/06/24 16:42:31;;;;;;;15.98;14.32;;;;;;;;;;6186038;28;20312;-77
2022/06/24 16:45:53;;;;;;;7.80;7.10;;;;;;;;;;6183633;28;20559;-78
2022/06/24 16:49:14;;;;;;;4.20;3.80;;;;;;;;;;6170839;28;20222;-78
2022/06/24 16:52:36;;;;;;;4.25;3.85;;;;;;;;;;6179851;28;20246;-77
2022/06/24 16:55:56;;;;;;;6.80;6.20;;;;;;;;;;6182600;28;20229;-77
2022/06/24 16:59:17;;;;;;;7.78;7.00;;;;;;;;;;6180310;28;20246;-77
2022/06/24 17:02:38;;;;;;;5.03;4.63;;;;;;;;;;6181248;28;20234;-76
2022/06/24 17:06:00;;;;;;;6.80;6.20;;;;;;;;;;6185617;28;20320;-79
2022/06/24 17:09:23;;;;;;;6.90;6.20;;;;;;;;;;6181661;28;20238;-77
2022/06/24 17:12:44;;;;;;;5.95;5.32;;;;;;;;;;6184614;28;20241;-77
2022/06/24 17:16:05;;;;;;;3.78;3.47;;;;;;;;;;6168193;28;20229;-74
2022/06/24 17:19:26;;;;;;;3.05;2.75;;;;;;;;;;6185855;28;20946;-68
2022/06/24 17:22:47;;;;;;;5.15;4.43;;;;;;;;;;6180966;28;20230;-69
2022/06/24 17:26:08;;;;;;;3.30;2.80;;;;;;;;;;6183925;28;20607;-70
2022/06/24 17:29:29;;;;;;;4.22;2.42;;;;;;;;;;6178512;28;20605;-69
2022/06/24 17:32:50;;;;;;;3.22;2.33;;;;;;;;;;6181233;28;20341;-69
2022/06/24 17:36:11;;;;;;;4.03;3.00;;;;;;;;;;6181190;28;20221;-69
2022/06/24 17:39:32;;;;;;;6.57;5.57;;;;;;;;;;6182467;28;20238;-70
2022/06/24 17:42:53;;;;;;;5.95;4.75;;;;;;;;;;6183976;28;20356;-70
2022/06/24 17:46:15;;;;;;;3.40;2.92;;;;;;;;;;6181203;28;20261;-68
2022/06/24 17:49:36;;;;;;;4.80;2.72;;;;;;;;;;6178578;28;20619;-69
2022/06/24 17:52:57;;;;;;;2.55;2.35;;;;;;;;;;6184021;28;20251;-69
2022/06/24 17:56:18;;;;;;;4.65;4.22;;;;;;;;;;6178983;28;20230;-69
2022/06/24 17:59:40;;;;;;;14.50;13.15;;;;;;;;;;6180638;28;20234;-69
2022/06/24 18:03:01;;;;;;;20.58;18.52;;;;;;;;;;6177420;28;20241;-68
2022/06/24 18:06:22;;;;;;;13.10;11.82;;;;;;;;;;6180064;28;20229;-69
2022/06/24 18:09:42;;;;;;;6.80;5.40;;;;;;;;;;6184712;28;20234;-68
2022/06/24 18:13:03;;;;;;;4.50;3.60;;;;;;;;;;6183001;28;20650;-69
2022/06/24 18:16:25;;;;;;;6.07;4.68;;;;;;;;;;6179988;28;20271;-70
2022/06/24 18:19:46;;;;;;;5.75;5.20;;;;;;;;;;6177742;28;20230;-69
2022/06/24 18:23:07;;;;;;;7.10;6.40;;;;;;;;;;6179599;28;20234;-68
2022/06/24 18:26:28;;;;;;;13.25;11.88;;;;;;;;;;6180625;28;20225;-70
2022/06/24 18:29:49;;;;;;;29.42;24.60;;;;;;;;;;6178842;28;20241;-68
2022/06/24 18:33:11;;;;;;;11.15;10.13;;;;;;;;;;6174061;28;21947;-69
2022/06/24 18:36:32;;;;;;;11.90;10.68;;;;;;;;;;6179018;28;20230;-68
2022/06/24 18:39:52;;;;;;;15.55;14.25;;;;;;;;;;6181910;28;20230;-69
2022/06/24 18:43:13;;;;;;;4.78;4.38;;;;;;;;;;6179731;28;20233;-69
2022/06/24 18:46:34;;;;;;;9.98;8.30;;;;;;;;;;6178577;28;20551;-69
2022/06/24 18:49:56;;;;;;;13.07;11.93;;;;;;;;;;6176722;28;20619;-70
2022/06/24 18:53:16;;;;;;;8.55;7.03;;;;;;;;;;6176961;28;20229;-70
2022/06/24 18:56:37;;;;;;;5.72;5.18;;;;;;;;;;6180438;28;20457;-70
2022/06/24 18:59:58;;;;;;;5.82;5.22;;;;;;;;;;6167042;28;20615;-69
2022/06/24 19:03:19;;;;;;;5.53;5.03;;;;;;;;;;6178688;28;20229;-68
2022/06/24 19:06:41;;;;;;;6.60;5.88;;;;;;;;;;6181468;28;20225;-70
2022/06/24 19:10:02;;;;;;;5.85;5.35;;;;;;;;;;6182825;28;20230;-70
2022/06/24 19:13:24;;;;;;;7.30;6.10;;;;;;;;;;6177062;28;20265;-69
2022/06/24 19:16:45;;;;;;;7.57;6.88;;;;;;;;;;6175427;28;20230;-70
2022/06/24 19:20:06;;;;;;;14.32;13.05;;;;;;;;;;6179029;28;20241;-69
2022/06/24 19:23:28;;;;;;;11.85;10.85;;;;;;;;;;6178787;28;20234;-70
2022/06/24 19:26:49;;;;;;;6.05;5.55;;;;;;;;;;6176734;28;20324;-70
2022/06/24 19:30:10;;;;;;;4.82;4.30;;;;;;;;;;6179375;28;20567;-69
2022/06/24 19:33:31;;;;;;;5.40;5.00;;;;;;;;;;6178890;28;20237;-69
2022/06/24 19:36:51;;;;;;;4.82;4.43;;;;;;;;;;6179703;28;20234;-69
2022/06/24 19:40:13;;;;;;;7.13;6.53;;;;;;;;;;6178657;28;20241;-70
2022/06/24 19:43:34;;;;;;;6.85;6.30;;;;;;;;;;6177853;28;20235;-69
2022/06/24 19:46:54;;;;;;;7.88;7.10;;;;;;;;;;6179061;28;20835;-69
2022/06/24 19:50:16;;;;;;;8.10;5.78;;;;;;;;;;6183426;28;20233;-72
2022/06/24 19:53:37;;;;;;;8.50;7.80;;;;;;;;;;6185082;28;20226;-72
2022/06/24 19:56:58;;;;;;;7.80;7.00;;;;;;;;;;6186298;28;20229;-70
2022/06/24 20:00:19;;;;;;;7.40;6.80;;;;;;;;;;6181570;28;20241;-71
2022/06/24 20:07:18;;;;;;;7.32;6.72;;;;;;;;;;6186738;28;20229;-71
2022/06/24 20:10:38;;;;;;;8.27;7.40;;;;;;;;;;6184320;28;20242;-70
2022/06/24 20:14:00;;;;;;;8.70;8.00;;;;;;;;;;6181782;28;20243;-69
2022/06/24 20:17:21;;;;;;;7.80;7.07;;;;;;;;;;6180253;28;20229;-71
2022/06/24 20:20:42;;;;;;;7.05;6.38;;;;;;;;;;6179388;28;20238;-72
2022/06/24 20:24:03;;;;;;;8.13;6.60;;;;;;;;;;6186089;28;20229;-72
2022/06/24 20:27:24;;;;;;;8.45;7.78;;;;;;;;;;6180723;28;20230;-69
2022/06/24 20:30:46;;;;;;;8.23;7.63;;;;;;;;;;6184911;28;20245;-70
2022/06/24 20:34:07;;;;;;;6.72;5.97;;;;;;;;;;6181332;28;20928;-69